createdAt,value
2022-08-05T00:01:35.928Z,21.68
2022-08-05T00:04:05.176Z,21.64
2022-08-05T00:06:35.950Z,21.61
2022-08-05T00:09:03.961Z,21.61
2022-08-05T00:11:35.085Z,21.60
2022-08-05T00:14:17.832Z,21.53
2022-08-05T00:16:53.123Z,21.49
2022-08-05T00:19:22.267Z,21.44
2022-08-05T00:21:49.957Z,21.37
2022-08-05T00:24:19.305Z,21.30
2022-08-05T00:26:53.014Z,21.24
2022-08-05T00:29:22.365Z,21.16
2022-08-05T00:32:10.656Z,21.07
2022-08-05T00:34:55.859Z,20.98
2022-08-05T00:37:24.772Z,20.91
2022-08-05T00:39:58.489Z,20.88
2022-08-05T00:42:33.750Z,20.84
2022-08-05T00:45:03.019Z,20.80
2022-08-05T00:47:53.238Z,20.78
2022-08-05T00:50:18.656Z,20.76
2022-08-05T00:52:48.301Z,20.72
2022-08-05T00:55:15.438Z,20.69
2022-08-05T00:57:55.401Z,20.66
2022-08-05T01:00:25.887Z,20.66
2022-08-05T01:02:53.428Z,20.65
2022-08-05T01:05:20.708Z,20.63
2022-08-05T01:08:41.597Z,20.62
2022-08-05T01:10:51.629Z,20.57
2022-08-05T01:13:27.528Z,20.53
2022-08-05T01:16:21.080Z,20.53
2022-08-05T01:19:00.848Z,20.52
2022-08-05T01:21:58.363Z,20.51
2022-08-05T01:24:41.775Z,20.47
2022-08-05T01:27:19.703Z,20.42
2022-08-05T01:29:56.331Z,20.41
2022-08-05T01:32:27.680Z,20.39
2022-08-05T01:34:59.211Z,20.34
2022-08-05T01:37:34.426Z,20.34
2022-08-05T01:40:07.420Z,20.33
2022-08-05T01:42:38.113Z,20.33
2022-08-05T01:45:10.862Z,20.32
2022-08-05T01:47:39.916Z,20.26
2022-08-05T01:50:15.644Z,20.26
2022-08-05T01:52:49.656Z,20.23
2022-08-05T01:55:20.033Z,20.20
2022-08-05T01:58:09.943Z,20.19
2022-08-05T02:00:42.505Z,20.16
2022-08-05T02:03:28.936Z,20.11
2022-08-05T02:06:03.410Z,20.07
2022-08-05T02:08:44.854Z,20.01
2022-08-05T02:11:23.845Z,19.97
2022-08-05T02:13:56.224Z,19.93
2022-08-05T02:16:29.567Z,19.92
2022-08-05T02:19:01.474Z,19.90
2022-08-05T02:21:43.124Z,19.92
2022-08-05T02:24:17.798Z,19.89
2022-08-05T02:26:51.862Z,19.86
2022-08-05T02:29:58.124Z,19.85
2022-08-05T02:32:19.951Z,19.81
2022-08-05T02:34:54.746Z,19.80
2022-08-05T02:37:24.955Z,19.76
2022-08-05T02:39:53.576Z,19.73
2022-08-05T02:42:25.838Z,19.68
2022-08-05T02:44:56.857Z,19.66
2022-08-05T02:47:36.508Z,19.60
2022-08-05T02:50:18.051Z,19.56
2022-08-05T02:52:46.764Z,19.53
2022-08-05T02:55:14.630Z,19.52
2022-08-05T02:58:11.047Z,19.47
2022-08-05T03:00:35.154Z,19.46
2022-08-05T03:03:07.601Z,19.43
2022-08-05T03:06:57.024Z,19.41
2022-08-05T03:08:29.790Z,19.38
2022-08-05T03:11:55.786Z,19.38
2022-08-05T03:13:52.156Z,19.37
2022-08-05T03:16:30.573Z,19.39
2022-08-05T03:19:01.282Z,19.39
2022-08-05T03:21:41.511Z,19.38
2022-08-05T03:24:17.439Z,19.37
2022-08-05T03:26:49.309Z,19.36
2022-08-05T03:29:17.314Z,19.37
2022-08-05T03:31:56.121Z,19.35
2022-08-05T03:34:27.595Z,19.35
2022-08-05T03:36:56.047Z,19.36
2022-08-05T03:39:27.259Z,19.38
2022-08-05T03:41:56.267Z,19.42
2022-08-05T03:44:24.005Z,19.45
2022-08-05T03:46:51.445Z,19.49
2022-08-05T03:49:18.735Z,19.53
2022-08-05T03:52:38.087Z,19.57
2022-08-05T03:56:00.760Z,19.63
2022-08-05T03:57:42.451Z,19.68
2022-08-05T04:00:16.025Z,19.74
2022-08-05T04:02:58.612Z,19.73
2022-08-05T04:05:34.083Z,19.73
2022-08-05T04:08:14.510Z,19.69
2022-08-05T04:10:54.555Z,19.77
2022-08-05T04:13:22.164Z,19.84
2022-08-05T04:16:03.132Z,19.93
2022-08-05T04:18:34.549Z,20.00
2022-08-05T04:21:02.321Z,20.06
2022-08-05T04:24:05.433Z,20.12
2022-08-05T04:26:21.267Z,20.16
2022-08-05T04:28:51.193Z,20.30
2022-08-05T04:31:19.680Z,20.44
2022-08-05T04:34:17.991Z,20.54
2022-08-05T04:36:46.589Z,20.64
2022-08-05T04:39:19.515Z,20.77
2022-08-05T04:41:48.202Z,20.91
2022-08-05T04:44:16.229Z,21.03
2022-08-05T04:46:51.729Z,21.11
2022-08-05T04:49:24.885Z,21.29
2022-08-05T04:52:07.760Z,21.48
2022-08-05T04:54:36.377Z,21.70
2022-08-05T04:57:03.903Z,21.87
2022-08-05T04:59:38.327Z,22.06
2022-08-05T05:02:37.566Z,22.27
2022-08-05T05:05:01.811Z,22.54
2022-08-05T05:07:32.835Z,22.75
2022-08-05T05:10:06.433Z,22.97
2022-08-05T05:12:34.045Z,23.20
2022-08-05T05:15:05.275Z,23.40
2022-08-05T05:17:56.605Z,23.63
2022-08-05T05:20:28.399Z,23.72
2022-08-05T05:22:56.582Z,23.81
2022-08-05T05:25:40.279Z,23.87
2022-08-05T05:28:08.085Z,24.19
2022-08-05T05:30:36.625Z,24.49
2022-08-05T05:33:15.927Z,24.76
2022-08-05T05:35:45.694Z,25.02
2022-08-05T05:38:14.314Z,25.22
2022-08-05T05:40:49.811Z,25.38
2022-08-05T05:43:22.091Z,25.64
2022-08-05T05:46:13.714Z,25.94
2022-08-05T05:48:44.274Z,26.09
2022-08-05T05:51:15.646Z,26.20
2022-08-05T05:53:54.355Z,26.32
2022-08-05T05:56:32.406Z,26.52
2022-08-05T05:59:03.493Z,26.74
2022-08-05T06:01:37.641Z,26.95
2022-08-05T06:04:07.179Z,27.11
2022-08-05T06:06:35.139Z,27.31
2022-08-05T06:09:03.231Z,27.57
2022-08-05T06:11:33.227Z,27.57
2022-08-05T06:14:01.154Z,27.63
2022-08-05T06:16:32.674Z,27.88
2022-08-05T06:19:05.728Z,28.14
2022-08-05T06:21:36.747Z,28.40
2022-08-05T06:24:07.719Z,28.61
2022-08-05T06:26:51.250Z,28.83
2022-08-05T06:29:43.034Z,29.04
2022-08-05T06:32:21.430Z,29.24
2022-08-05T06:34:57.114Z,29.43
2022-08-05T06:37:57.321Z,29.66
2022-08-05T06:40:14.086Z,29.83
2022-08-05T06:42:48.178Z,29.94
2022-08-05T06:45:43.937Z,30.09
2022-08-05T06:48:36.776Z,30.25
2022-08-05T06:50:55.599Z,30.52
2022-08-05T06:53:28.690Z,30.76
2022-08-05T06:55:56.569Z,31.03
2022-08-05T06:58:35.495Z,31.23
2022-08-05T07:01:05.681Z,31.41
2022-08-05T07:03:33.640Z,31.63
2022-08-05T07:06:06.059Z,31.78
2022-08-05T07:08:42.772Z,32.00
2022-08-05T07:11:15.262Z,32.20
2022-08-05T07:14:03.235Z,32.32
2022-08-05T07:18:01.084Z,32.50
2022-08-05T07:22:28.460Z,32.89
2022-08-05T07:24:59.302Z,32.95
2022-08-05T07:27:27.421Z,33.10
2022-08-05T07:30:24.186Z,33.20
2022-08-05T07:32:55.529Z,33.29
2022-08-05T07:36:05.299Z,33.48
2022-08-05T07:38:33.871Z,33.71
2022-08-05T07:41:16.791Z,33.92
2022-08-05T07:43:47.135Z,34.05
2022-08-05T07:46:20.791Z,34.06
2022-08-05T07:49:04.047Z,34.14
2022-08-05T07:51:36.724Z,34.21
2022-08-05T07:54:05.491Z,34.31
2022-08-05T07:57:01.414Z,34.53
2022-08-05T07:59:23.316Z,34.69
2022-08-05T08:02:15.213Z,34.82
2022-08-05T08:04:44.938Z,34.94
2022-08-05T08:07:12.762Z,35.08
2022-08-05T08:09:39.988Z,35.17
2022-08-05T08:12:35.102Z,35.21
2022-08-05T08:14:55.062Z,35.26
2022-08-05T08:17:23.946Z,35.45
2022-08-05T08:20:22.635Z,35.70
2022-08-05T08:22:42.299Z,35.91
2022-08-05T08:25:15.748Z,35.95
2022-08-05T08:27:47.919Z,35.94
2022-08-05T08:30:29.689Z,35.87
2022-08-05T08:33:08.297Z,35.92
2022-08-05T08:35:40.872Z,36.13
2022-08-05T08:38:11.694Z,36.10
2022-08-05T08:40:50.440Z,35.95
2022-08-05T08:44:54.656Z,35.91
2022-08-05T08:46:09.817Z,35.82
2022-08-05T08:49:06.229Z,35.84
2022-08-05T08:52:03.097Z,35.94
2022-08-05T08:54:21.059Z,35.90
2022-08-05T08:56:56.516Z,36.00
2022-08-05T08:59:27.611Z,36.07
2022-08-05T09:02:01.246Z,35.63
2022-08-05T09:04:30.745Z,35.59
2022-08-05T09:06:58.513Z,35.81
2022-08-05T09:09:32.411Z,36.10
2022-08-05T09:12:14.416Z,36.40
2022-08-05T09:14:57.030Z,36.54
2022-08-05T09:17:40.873Z,36.63
2022-08-05T09:20:13.232Z,36.83
2022-08-05T09:23:18.589Z,36.97
2022-08-05T09:26:03.194Z,37.13
2022-08-05T09:28:33.739Z,37.16
2022-08-05T09:31:22.615Z,37.07
2022-08-05T09:33:53.777Z,37.14
2022-08-05T09:36:27.398Z,37.19
2022-08-05T09:38:56.262Z,37.21
2022-08-05T09:41:24.592Z,37.48
2022-08-05T09:43:53.203Z,37.39
2022-08-05T09:46:28.342Z,37.58
2022-08-05T09:49:08.337Z,37.84
2022-08-05T09:51:50.040Z,37.86
2022-08-05T09:54:29.546Z,37.84
2022-08-05T09:57:01.253Z,38.06
2022-08-05T09:59:35.207Z,38.23
2022-08-05T10:02:05.399Z,38.28
2022-08-05T10:04:36.317Z,38.16
2022-08-05T10:07:20.598Z,37.56
2022-08-05T10:10:04.316Z,36.91
2022-08-05T10:12:50.005Z,36.85
2022-08-05T10:15:25.995Z,37.33
2022-08-05T10:18:05.854Z,37.67
2022-08-05T10:20:36.981Z,37.37
2022-08-05T10:23:08.976Z,36.97
2022-08-05T10:25:55.322Z,36.59
2022-08-05T10:28:29.397Z,36.51
2022-08-05T10:32:49.184Z,36.11
2022-08-05T10:33:45.734Z,36.40
2022-08-05T10:36:23.716Z,36.85
2022-08-05T10:39:05.138Z,37.22
2022-08-05T10:41:46.419Z,37.69
2022-08-05T10:44:19.153Z,37.36
2022-08-05T10:46:50.890Z,36.80
2022-08-05T10:49:27.491Z,36.41
2022-08-05T10:52:04.995Z,36.11
2022-08-05T10:55:04.588Z,35.83
2022-08-05T10:57:34.259Z,35.69
2022-08-05T11:00:16.099Z,36.13
2022-08-05T11:03:24.500Z,36.74
2022-08-05T11:06:05.022Z,37.10
2022-08-05T11:08:37.202Z,36.88
2022-08-05T11:11:52.453Z,36.41
2022-08-05T11:14:49.355Z,35.95
2022-08-05T11:17:57.499Z,36.32
2022-08-05T11:20:44.165Z,36.57
2022-08-05T11:24:03.876Z,36.37
2022-08-05T11:26:28.101Z,36.00
2022-08-05T11:28:59.428Z,35.71
2022-08-05T11:31:58.375Z,35.55
2022-08-05T11:34:36.958Z,35.55
2022-08-05T11:38:14.343Z,35.57
2022-08-05T11:40:00.721Z,35.97
2022-08-05T11:42:40.387Z,36.59
2022-08-05T11:45:23.327Z,37.06
2022-08-05T11:47:57.882Z,37.33
2022-08-05T11:50:26.302Z,37.57
2022-08-05T11:52:57.585Z,37.53
2022-08-05T11:55:31.961Z,37.10
2022-08-05T11:58:09.532Z,36.65
2022-08-05T12:00:44.098Z,36.23
2022-08-05T12:03:28.570Z,36.40
2022-08-05T12:06:06.017Z,36.72
2022-08-05T12:08:34.030Z,37.03
2022-08-05T12:11:09.257Z,37.40
2022-08-05T12:13:54.906Z,37.81
2022-08-05T12:16:29.133Z,38.16
2022-08-05T12:18:56.573Z,38.39
2022-08-05T12:21:29.982Z,37.80
2022-08-05T12:24:05.077Z,37.17
2022-08-05T12:26:36.077Z,36.81
2022-08-05T12:29:05.208Z,36.87
2022-08-05T12:31:45.910Z,37.13
2022-08-05T12:34:20.500Z,37.44
2022-08-05T12:36:52.449Z,37.72
2022-08-05T12:39:19.878Z,37.76
2022-08-05T12:41:47.131Z,37.91
2022-08-05T12:44:28.667Z,37.54
2022-08-05T12:47:03.705Z,37.04
2022-08-05T12:50:03.628Z,36.72
2022-08-05T12:52:33.879Z,36.40
2022-08-05T12:55:17.971Z,36.14
2022-08-05T12:58:49.373Z,36.00
2022-08-05T13:02:00.490Z,35.92
2022-08-05T13:03:32.577Z,35.88
2022-08-05T13:06:01.007Z,35.89
2022-08-05T13:08:29.385Z,35.90
2022-08-05T13:11:00.154Z,35.83
2022-08-05T13:14:05.273Z,35.96
2022-08-05T13:16:16.778Z,36.45
2022-08-05T13:18:52.574Z,36.72
2022-08-05T13:21:22.571Z,36.89
2022-08-05T13:23:55.253Z,36.69
2022-08-05T13:26:30.310Z,36.52
2022-08-05T13:28:59.018Z,36.46
2022-08-05T13:31:34.093Z,36.66
2022-08-05T13:34:21.551Z,37.07
2022-08-05T13:36:52.842Z,37.40
2022-08-05T13:40:12.758Z,37.58
2022-08-05T13:42:14.069Z,37.48
2022-08-05T13:44:45.463Z,37.31
2022-08-05T13:47:34.988Z,37.47
2022-08-05T13:50:04.535Z,37.46
2022-08-05T13:52:35.184Z,37.01
2022-08-05T13:55:07.926Z,36.88
2022-08-05T13:57:48.698Z,36.56
2022-08-05T14:00:26.913Z,36.17
2022-08-05T14:02:55.512Z,35.93
2022-08-05T14:05:48.446Z,35.69
2022-08-05T14:08:21.056Z,35.75
2022-08-05T14:11:03.162Z,35.90
2022-08-05T14:13:42.503Z,36.09
2022-08-05T14:16:11.545Z,36.19
2022-08-05T14:18:38.959Z,36.19
2022-08-05T14:22:08.197Z,36.24
2022-08-05T14:23:55.371Z,36.29
2022-08-05T14:26:35.763Z,36.36
2022-08-05T14:29:06.474Z,36.42
2022-08-05T14:32:03.917Z,36.50
2022-08-05T14:34:35.320Z,36.55
2022-08-05T14:37:05.303Z,36.59
2022-08-05T14:39:51.190Z,36.64
2022-08-05T14:42:29.319Z,36.64
2022-08-05T14:44:56.900Z,36.43
2022-08-05T14:48:04.175Z,36.11
2022-08-05T14:50:18.225Z,35.66
2022-08-05T14:52:53.580Z,35.28
2022-08-05T14:55:38.580Z,35.21
2022-08-05T14:58:12.003Z,35.37
2022-08-05T15:00:58.459Z,35.53
2022-08-05T15:03:33.809Z,35.48
2022-08-05T15:06:14.867Z,35.43
2022-08-05T15:08:59.291Z,35.40
2022-08-05T15:11:51.507Z,35.44
2022-08-05T15:14:34.301Z,35.56
2022-08-05T15:17:04.605Z,35.48
2022-08-05T15:19:32.141Z,35.32
2022-08-05T15:22:01.423Z,35.28
2022-08-05T15:24:30.059Z,35.22
2022-08-05T15:26:58.091Z,35.14
2022-08-05T15:29:30.311Z,35.04
2022-08-05T15:32:03.285Z,34.89
2022-08-05T15:34:33.603Z,34.81
2022-08-05T15:37:06.076Z,34.70
2022-08-05T15:40:59.389Z,34.75
2022-08-05T15:42:54.521Z,34.75
2022-08-05T15:45:11.591Z,34.71
2022-08-05T15:47:38.947Z,34.65
2022-08-05T15:50:07.403Z,34.62
2022-08-05T15:52:53.264Z,34.56
2022-08-05T15:55:24.681Z,34.42
2022-08-05T15:57:52.407Z,34.35
2022-08-05T16:00:25.778Z,34.32
2022-08-05T16:02:56.034Z,34.28
2022-08-05T16:05:23.270Z,34.24
2022-08-05T16:07:55.714Z,34.19
2022-08-05T16:10:27.013Z,34.07
2022-08-05T16:12:56.099Z,33.96
2022-08-05T16:15:23.594Z,33.88
2022-08-05T16:17:57.519Z,33.83
2022-08-05T16:20:25.308Z,33.77
2022-08-05T16:22:52.482Z,33.67
2022-08-05T16:25:19.825Z,33.60
2022-08-05T16:28:02.208Z,33.46
2022-08-05T16:30:34.225Z,33.37
2022-08-05T16:33:03.808Z,33.28
2022-08-05T16:35:33.793Z,33.18
2022-08-05T16:38:23.969Z,33.09
2022-08-05T16:40:59.859Z,32.98
2022-08-05T16:43:31.453Z,32.91
2022-08-05T16:46:06.100Z,32.89
2022-08-05T16:48:37.863Z,32.85
2022-08-05T16:51:08.989Z,32.82
2022-08-05T16:54:03.853Z,32.75
2022-08-05T16:56:26.485Z,32.68
2022-08-05T16:58:55.842Z,32.61
2022-08-05T17:01:24.555Z,32.55
2022-08-05T17:03:52.287Z,32.46
2022-08-05T17:06:20.222Z,32.38
2022-08-05T17:08:53.748Z,32.26
2022-08-05T17:11:23.693Z,32.15
2022-08-05T17:14:00.237Z,32.04
2022-08-05T17:16:36.562Z,31.94
2022-08-05T17:19:07.775Z,31.81
2022-08-05T17:21:39.683Z,31.68
2022-08-05T17:24:18.648Z,31.56
2022-08-05T17:26:58.747Z,31.41
2022-08-05T17:29:33.164Z,31.32
2022-08-05T17:32:03.106Z,31.19
2022-08-05T17:34:32.479Z,31.06
2022-08-05T17:37:02.232Z,30.92
2022-08-05T17:39:34.625Z,30.79
2022-08-05T17:42:18.520Z,30.67
2022-08-05T17:44:51.414Z,30.55
2022-08-05T17:47:22.482Z,30.44
2022-08-05T17:49:59.966Z,30.35
2022-08-05T17:52:31.071Z,30.25
2022-08-05T17:54:58.365Z,30.14
2022-08-05T17:57:25.594Z,30.03
2022-08-05T18:00:05.458Z,29.93
2022-08-05T18:02:35.232Z,29.79
2022-08-05T18:05:07.699Z,29.71
2022-08-05T18:07:42.256Z,29.64
2022-08-05T18:10:10.934Z,29.55
2022-08-05T18:12:38.709Z,29.48
2022-08-05T18:15:08.823Z,29.44
2022-08-05T18:18:00.986Z,29.37
2022-08-05T18:20:29.316Z,29.31
2022-08-05T18:22:58.657Z,29.25
2022-08-05T18:25:33.020Z,29.18
2022-08-05T18:28:01.735Z,29.08
2022-08-05T18:30:33.281Z,29.01
2022-08-05T18:33:02.451Z,28.89
2022-08-05T18:36:01.235Z,28.83
2022-08-05T18:38:19.167Z,28.76
2022-08-05T18:41:57.572Z,28.68
2022-08-05T18:43:43.191Z,28.61
2022-08-05T18:46:19.854Z,28.55
2022-08-05T18:48:52.144Z,28.49
2022-08-05T18:52:04.446Z,28.43
2022-08-05T18:54:25.791Z,28.37
2022-08-05T18:56:54.777Z,28.32
2022-08-05T18:59:44.227Z,28.29
2022-08-05T19:02:11.334Z,28.22
2022-08-05T19:05:02.641Z,28.12
2022-08-05T19:07:46.222Z,27.97
2022-08-05T19:10:14.273Z,27.90
2022-08-05T19:12:43.061Z,27.82
2022-08-05T19:15:54.719Z,27.71
2022-08-05T19:18:08.809Z,27.59
2022-08-05T19:20:41.338Z,27.47
2022-08-05T19:24:04.461Z,27.37
2022-08-05T19:26:01.795Z,27.22
2022-08-05T19:28:30.204Z,27.13
2022-08-05T19:30:57.629Z,27.02
2022-08-05T19:33:35.163Z,26.94
2022-08-05T19:36:06.361Z,26.83
2022-08-05T19:38:34.250Z,26.75
2022-08-05T19:41:07.137Z,26.64
2022-08-05T19:44:05.995Z,26.54
2022-08-05T19:46:30.625Z,26.43
2022-08-05T19:49:02.834Z,26.35
2022-08-05T19:52:05.889Z,26.29
2022-08-05T19:54:26.813Z,26.22
2022-08-05T19:56:59.272Z,26.19
2022-08-05T19:59:54.000Z,26.16
2022-08-05T20:02:14.706Z,26.13
2022-08-05T20:04:42.960Z,26.11
2022-08-05T20:07:14.748Z,26.05
2022-08-05T20:09:54.122Z,25.97
2022-08-05T20:12:22.716Z,25.89
2022-08-05T20:14:52.484Z,25.83
2022-08-05T20:17:19.876Z,25.70
2022-08-05T20:19:51.050Z,25.63
2022-08-05T20:22:26.921Z,25.61
2022-08-05T20:24:54.652Z,25.61
2022-08-05T20:27:26.802Z,25.59
2022-08-05T20:29:58.390Z,25.58
2022-08-05T20:32:27.145Z,25.52
2022-08-05T20:34:54.919Z,25.47
2022-08-05T20:38:06.669Z,25.32
2022-08-05T20:40:12.148Z,25.30
2022-08-05T20:42:39.625Z,25.31
2022-08-05T20:45:11.215Z,25.34
2022-08-05T20:47:40.063Z,25.33
2022-08-05T20:50:09.314Z,25.31
2022-08-05T20:52:41.470Z,25.28
2022-08-05T20:55:54.732Z,25.25
2022-08-05T20:57:57.510Z,25.22
2022-08-05T21:00:52.244Z,25.18
2022-08-05T21:03:11.999Z,25.15
2022-08-05T21:05:53.908Z,25.07
2022-08-05T21:08:26.910Z,25.06
2022-08-05T21:11:12.011Z,25.02
2022-08-05T21:13:48.229Z,24.99
2022-08-05T21:16:23.195Z,24.93
2022-08-05T21:18:59.883Z,24.91
2022-08-05T21:21:38.802Z,24.88
2022-08-05T21:24:09.916Z,24.86
2022-08-05T21:26:43.352Z,24.82
2022-08-05T21:29:16.708Z,24.81
2022-08-05T21:31:44.208Z,24.80
2022-08-05T21:34:11.599Z,24.77
2022-08-05T21:36:39.530Z,24.75
2022-08-05T21:39:10.391Z,24.73
2022-08-05T21:41:43.098Z,24.68
2022-08-05T21:44:27.053Z,24.66
2022-08-05T21:46:55.715Z,24.65
2022-08-05T21:50:00.030Z,24.64
2022-08-05T21:52:27.655Z,24.62
2022-08-05T21:54:55.849Z,24.54
2022-08-05T21:57:32.593Z,24.55
2022-08-05T22:00:11.093Z,24.53
2022-08-05T22:02:42.673Z,24.53
2022-08-05T22:05:10.574Z,24.52
2022-08-05T22:07:40.521Z,24.49
2022-08-05T22:10:26.688Z,24.49
2022-08-05T22:12:57.467Z,24.46
2022-08-05T22:16:00.685Z,24.44
2022-08-05T22:18:13.210Z,24.42
2022-08-05T22:20:44.121Z,24.39
2022-08-05T22:24:00.804Z,24.37
2022-08-05T22:26:35.738Z,24.32
2022-08-05T22:29:04.509Z,24.26
2022-08-05T22:31:44.366Z,24.24
2022-08-05T22:34:20.073Z,24.21
2022-08-05T22:36:52.821Z,24.13
2022-08-05T22:39:21.436Z,24.08
2022-08-05T22:42:11.313Z,24.03
2022-08-05T22:44:37.508Z,23.99
2022-08-05T22:47:05.987Z,23.95
2022-08-05T22:50:18.446Z,23.92
2022-08-05T22:52:30.185Z,23.89
2022-08-05T22:55:00.087Z,23.86
2022-08-05T22:57:27.429Z,23.80
2022-08-05T23:00:08.099Z,23.75
2022-08-05T23:02:46.474Z,23.73
2022-08-05T23:05:14.482Z,23.67
2022-08-05T23:07:48.639Z,23.58
2022-08-05T23:10:20.174Z,23.52
2022-08-05T23:12:51.586Z,23.47
2022-08-05T23:15:26.678Z,23.43
2022-08-05T23:18:00.824Z,23.39
2022-08-05T23:20:31.161Z,23.33
2022-08-05T23:22:58.991Z,23.31
2022-08-05T23:25:54.917Z,23.28
2022-08-05T23:28:15.904Z,23.21
2022-08-05T23:30:53.635Z,23.12
2022-08-05T23:33:26.357Z,23.07
2022-08-05T23:36:13.671Z,23.04
2022-08-05T23:38:42.805Z,23.00
2022-08-05T23:41:11.255Z,23.00
2022-08-05T23:44:04.917Z,22.99
2022-08-05T23:46:29.702Z,22.96
2022-08-05T23:48:59.667Z,22.94
2022-08-05T23:51:52.479Z,22.91
2022-08-05T23:54:25.903Z,22.90
2022-08-05T23:56:55.300Z,22.87
2022-08-05T23:59:23.198Z,22.83
